createdAt,value
2023-08-05T00:02:18.109Z,25.54
2023-08-05T00:04:46.484Z,25.57
2023-08-05T00:07:16.141Z,25.68
2023-08-05T00:09:44.711Z,25.10
2023-08-05T00:12:13.111Z,25.08
2023-08-05T00:14:41.542Z,25.14
2023-08-05T00:17:09.932Z,24.56
2023-08-05T00:19:38.334Z,24.97
2023-08-05T00:22:06.856Z,25.04
2023-08-05T00:24:36.541Z,25.14
2023-08-05T00:27:05.084Z,25.27
2023-08-05T00:29:33.606Z,24.71
2023-08-05T00:32:01.966Z,24.68
2023-08-05T00:34:30.303Z,24.90
2023-08-05T00:36:58.624Z,25.07
2023-08-05T00:39:26.947Z,25.13
2023-08-05T00:41:56.644Z,25.03
2023-08-05T00:44:25.908Z,24.93
2023-08-05T00:46:54.615Z,24.91
2023-08-05T00:49:23.250Z,25.01
2023-08-05T00:51:52.131Z,25.06
2023-08-05T00:54:20.561Z,25.06
2023-08-05T00:56:49.314Z,25.00
2023-08-05T00:59:20.842Z,25.07
2023-08-05T01:01:49.142Z,25.11
2023-08-05T01:04:17.533Z,25.00
2023-08-05T01:06:47.048Z,24.90
2023-08-05T01:09:15.586Z,24.75
2023-08-05T01:11:44.111Z,24.85
2023-08-05T01:14:12.489Z,24.77
2023-08-05T01:16:42.150Z,24.74
2023-08-05T01:19:18.540Z,24.73
2023-08-05T01:21:53.778Z,24.72
2023-08-05T01:24:27.460Z,24.67
2023-08-05T01:26:57.886Z,24.64
2023-08-05T01:29:26.287Z,24.68
2023-08-05T01:31:55.729Z,24.64
2023-08-05T01:34:24.505Z,24.70
2023-08-05T01:36:52.966Z,24.70
2023-08-05T01:39:21.332Z,24.62
2023-08-05T01:41:49.682Z,24.58
2023-08-05T01:44:19.412Z,24.54
2023-08-05T01:46:47.953Z,24.58
2023-08-05T01:49:16.541Z,24.55
2023-08-05T01:51:44.786Z,24.58
2023-08-05T01:54:13.080Z,24.49
2023-08-05T01:56:41.402Z,24.41
2023-08-05T01:59:09.690Z,24.32
2023-08-05T02:01:47.479Z,24.47
2023-08-05T02:04:16.630Z,24.43
2023-08-05T02:06:45.044Z,24.35
2023-08-05T02:09:13.418Z,24.26
2023-08-05T02:11:41.754Z,24.27
2023-08-05T02:14:10.066Z,24.41
2023-08-05T02:16:38.618Z,24.38
2023-08-05T02:19:10.623Z,24.39
2023-08-05T02:21:41.246Z,24.34
2023-08-05T02:24:11.333Z,24.40
2023-08-05T02:26:40.064Z,24.36
2023-08-05T02:29:08.391Z,24.29
2023-08-05T02:31:36.748Z,24.51
2023-08-05T02:34:05.029Z,24.46
2023-08-05T02:36:34.922Z,24.33
2023-08-05T02:39:03.292Z,23.29
2023-08-05T02:41:31.637Z,22.85
2023-08-05T02:43:59.948Z,22.73
2023-08-05T02:46:28.264Z,23.05
2023-08-05T02:48:56.601Z,23.16
2023-08-05T02:51:24.869Z,23.46
2023-08-05T02:53:54.533Z,23.47
2023-08-05T02:56:22.834Z,23.31
2023-08-05T02:58:51.146Z,23.42
2023-08-05T03:01:19.486Z,23.74
2023-08-05T03:03:47.881Z,23.76
2023-08-05T03:06:16.180Z,23.82
2023-08-05T03:08:44.399Z,23.97
2023-08-05T03:11:14.111Z,23.56
2023-08-05T03:13:42.414Z,23.09
2023-08-05T03:16:12.142Z,22.96
2023-08-05T03:18:40.695Z,23.52
2023-08-05T03:21:09.113Z,23.64
2023-08-05T03:23:37.416Z,23.93
2023-08-05T03:26:05.777Z,23.89
2023-08-05T03:28:35.484Z,23.61
2023-08-05T03:31:03.789Z,23.77
2023-08-05T03:33:32.133Z,23.70
2023-08-05T03:36:00.404Z,23.81
2023-08-05T03:38:28.671Z,24.00
2023-08-05T03:40:57.015Z,23.87
2023-08-05T03:43:25.321Z,23.70
2023-08-05T03:45:55.057Z,23.52
2023-08-05T03:48:23.402Z,23.48
2023-08-05T03:50:51.855Z,23.55
2023-08-05T03:53:20.237Z,23.25
2023-08-05T03:55:48.588Z,22.84
2023-08-05T03:58:19.752Z,22.73
2023-08-05T04:00:48.208Z,22.86
2023-08-05T04:03:18.119Z,22.66
2023-08-05T04:05:48.200Z,22.83
2023-08-05T04:08:17.449Z,22.52
2023-08-05T04:10:45.695Z,22.17
2023-08-05T04:13:13.960Z,22.93
2023-08-05T04:15:42.269Z,23.14
2023-08-05T04:18:10.636Z,23.39
2023-08-05T04:20:41.951Z,23.36
2023-08-05T04:23:10.474Z,23.44
2023-08-05T04:25:39.061Z,23.66
2023-08-05T04:28:07.836Z,23.43
2023-08-05T04:30:36.186Z,23.64
2023-08-05T04:33:04.594Z,23.69
2023-08-05T04:35:32.822Z,23.76
2023-08-05T04:38:02.515Z,24.03
2023-08-05T04:40:30.926Z,24.08
2023-08-05T04:42:59.272Z,23.98
2023-08-05T04:45:27.674Z,24.01
2023-08-05T04:47:55.985Z,24.00
2023-08-05T04:50:24.372Z,24.12
2023-08-05T04:52:52.661Z,24.21
2023-08-05T04:55:22.319Z,24.25
2023-08-05T04:57:54.672Z,24.31
2023-08-05T05:00:23.350Z,24.45
2023-08-05T05:02:51.715Z,24.57
2023-08-05T05:05:20.248Z,24.58
2023-08-05T05:07:48.663Z,24.75
2023-08-05T05:10:17.112Z,24.79
2023-08-05T05:12:46.830Z,24.66
2023-08-05T05:15:15.192Z,24.09
2023-08-05T05:17:43.512Z,23.81
2023-08-05T05:20:13.105Z,23.92
2023-08-05T05:22:41.458Z,24.40
2023-08-05T05:25:10.481Z,24.11
2023-08-05T05:27:38.753Z,23.73
2023-08-05T05:30:09.788Z,23.84
2023-08-05T05:32:38.077Z,23.84
2023-08-05T05:35:07.082Z,23.78
2023-08-05T05:37:35.347Z,23.49
2023-08-05T05:40:04.560Z,23.50
2023-08-05T05:42:32.866Z,23.66
2023-08-05T05:45:01.723Z,24.20
2023-08-05T05:47:31.369Z,24.06
2023-08-05T05:50:00.295Z,24.35
2023-08-05T05:52:28.629Z,24.54
2023-08-05T05:54:56.931Z,24.55
2023-08-05T05:57:25.328Z,24.39
2023-08-05T05:59:53.682Z,24.63
2023-08-05T06:02:22.006Z,24.71
2023-08-05T06:04:51.931Z,25.12
2023-08-05T06:07:20.367Z,25.38
2023-08-05T06:09:48.710Z,25.50
2023-08-05T06:12:19.425Z,25.70
2023-08-05T06:14:47.797Z,26.47
2023-08-05T06:17:16.079Z,26.29
2023-08-05T06:19:44.574Z,26.05
2023-08-05T06:22:14.689Z,26.56
2023-08-05T06:24:43.097Z,26.95
2023-08-05T06:27:11.381Z,27.18
2023-08-05T06:29:39.718Z,27.93
2023-08-05T06:32:08.386Z,27.53
2023-08-05T06:34:36.691Z,27.27
2023-08-05T06:37:05.011Z,27.56
2023-08-05T06:39:35.197Z,27.71
2023-08-05T06:42:03.541Z,28.54
2023-08-05T06:44:31.903Z,28.81
2023-08-05T06:47:00.246Z,29.13
2023-08-05T06:49:28.533Z,29.55
2023-08-05T06:51:58.588Z,29.96
2023-08-05T06:54:27.189Z,29.75
2023-08-05T06:56:56.950Z,30.08
2023-08-05T06:59:25.242Z,30.44
2023-08-05T07:01:53.924Z,30.41
2023-08-05T07:04:22.590Z,30.22
2023-08-05T07:06:50.889Z,30.39
2023-08-05T07:09:19.186Z,30.18
2023-08-05T07:11:47.855Z,30.42
2023-08-05T07:14:17.595Z,30.43
2023-08-05T07:16:45.976Z,30.80
2023-08-05T07:19:14.285Z,31.50
2023-08-05T07:21:42.584Z,31.23
2023-08-05T07:24:11.043Z,31.45
2023-08-05T07:26:39.324Z,31.56
2023-08-05T07:29:07.614Z,31.62
2023-08-05T07:31:37.528Z,31.95
2023-08-05T07:34:06.727Z,32.03
2023-08-05T07:36:35.088Z,32.42
2023-08-05T07:39:07.482Z,32.36
2023-08-05T07:41:37.360Z,32.54
2023-08-05T07:44:05.858Z,32.97
2023-08-05T07:46:37.307Z,32.81
2023-08-05T07:49:08.416Z,33.27
2023-08-05T07:51:36.806Z,33.28
2023-08-05T07:54:05.275Z,33.32
2023-08-05T07:56:36.727Z,33.90
2023-08-05T07:59:05.184Z,34.24
2023-08-05T08:01:35.506Z,33.71
2023-08-05T08:04:04.819Z,34.44
2023-08-05T08:06:34.526Z,34.58
2023-08-05T08:09:02.814Z,34.05
2023-08-05T08:11:31.040Z,33.88
2023-08-05T08:13:59.344Z,33.75
2023-08-05T08:16:27.691Z,34.30
2023-08-05T08:18:55.990Z,35.11
2023-08-05T08:21:24.401Z,35.44
2023-08-05T08:23:54.055Z,35.60
2023-08-05T08:26:22.327Z,35.15
2023-08-05T08:28:50.651Z,35.31
2023-08-05T08:31:19.002Z,35.24
2023-08-05T08:33:47.666Z,35.24
2023-08-05T08:36:15.963Z,35.54
2023-08-05T08:38:44.300Z,34.86
2023-08-05T08:41:14.072Z,35.15
2023-08-05T08:43:44.561Z,35.72
2023-08-05T08:46:14.972Z,35.46
2023-08-05T08:48:45.947Z,36.36
2023-08-05T08:51:14.820Z,36.61
2023-08-05T08:53:45.988Z,36.48
2023-08-05T08:56:15.867Z,37.30
2023-08-05T08:58:45.698Z,37.39
2023-08-05T09:01:17.623Z,37.14
2023-08-05T09:03:50.798Z,36.85
2023-08-05T09:06:19.964Z,37.21
2023-08-05T09:08:48.614Z,36.91
2023-08-05T09:11:18.983Z,36.56
2023-08-05T09:13:47.380Z,37.20
2023-08-05T09:16:16.119Z,37.07
2023-08-05T09:18:54.609Z,38.07
2023-08-05T09:21:24.571Z,37.18
2023-08-05T09:23:55.584Z,37.56
2023-08-05T09:26:33.122Z,37.62
2023-08-05T09:29:02.217Z,38.35
2023-08-05T09:31:30.514Z,36.92
2023-08-05T09:33:58.875Z,37.30
2023-08-05T09:36:28.439Z,38.56
2023-08-05T09:39:07.399Z,38.37
2023-08-05T09:41:37.493Z,37.88
2023-08-05T09:44:08.436Z,36.87
2023-08-05T09:46:42.407Z,37.54
2023-08-05T09:49:13.690Z,37.29
2023-08-05T09:51:44.245Z,37.95
2023-08-05T09:54:17.114Z,37.78
2023-08-05T09:56:47.560Z,38.69
2023-08-05T09:59:17.990Z,38.18
2023-08-05T10:01:48.250Z,38.29
2023-08-05T10:04:18.864Z,38.20
2023-08-05T10:06:49.498Z,38.80
2023-08-05T10:09:17.749Z,39.08
2023-08-05T10:11:48.288Z,38.37
2023-08-05T10:14:17.536Z,38.46
2023-08-05T10:16:47.144Z,38.32
2023-08-05T10:19:15.503Z,38.05
2023-08-05T10:21:43.980Z,38.63
2023-08-05T10:24:12.313Z,38.77
2023-08-05T10:26:45.381Z,38.99
2023-08-05T10:29:30.966Z,38.73
2023-08-05T10:32:12.401Z,38.58
2023-08-05T10:34:40.916Z,38.24
2023-08-05T10:37:09.643Z,38.82
2023-08-05T10:39:45.330Z,38.36
2023-08-05T10:42:38.080Z,38.76
2023-08-05T10:45:10.562Z,38.49
2023-08-05T10:47:49.087Z,39.40
2023-08-05T10:50:17.633Z,39.34
2023-08-05T10:52:46.790Z,39.97
2023-08-05T10:55:15.068Z,40.29
2023-08-05T10:57:49.942Z,40.82
2023-08-05T11:00:25.957Z,40.46
2023-08-05T11:03:33.000Z,39.57
2023-08-05T11:06:06.155Z,39.49
2023-08-05T11:08:35.406Z,40.52
2023-08-05T11:11:04.803Z,40.81
2023-08-05T11:13:38.058Z,39.64
2023-08-05T11:16:09.673Z,38.94
2023-08-05T11:18:38.770Z,39.12
2023-08-05T11:21:08.769Z,39.69
2023-08-05T11:23:41.069Z,39.58
2023-08-05T11:26:10.372Z,39.00
2023-08-05T11:28:44.056Z,39.59
2023-08-05T11:31:23.422Z,38.14
2023-08-05T11:33:51.920Z,39.26
2023-08-05T11:36:25.394Z,39.09
2023-08-05T11:38:56.201Z,39.66
2023-08-05T11:41:25.128Z,39.20
2023-08-05T11:43:53.561Z,39.10
2023-08-05T11:46:40.838Z,39.51
2023-08-05T11:49:14.058Z,39.97
2023-08-05T11:51:49.782Z,39.90
2023-08-05T11:54:29.679Z,39.56
2023-08-05T11:57:00.089Z,38.76
2023-08-05T11:59:46.602Z,39.25
2023-08-05T12:02:19.705Z,39.69
2023-08-05T12:04:49.622Z,38.90
2023-08-05T12:07:19.694Z,39.32
2023-08-05T12:10:05.258Z,39.96
2023-08-05T12:12:33.858Z,39.81
2023-08-05T12:15:13.140Z,38.39
2023-08-05T12:17:48.532Z,39.30
2023-08-05T12:20:19.755Z,38.94
2023-08-05T12:22:49.500Z,38.63
2023-08-05T12:25:19.153Z,39.37
2023-08-05T12:27:48.124Z,39.35
2023-08-05T12:30:17.710Z,39.50
2023-08-05T12:32:47.851Z,39.68
2023-08-05T12:35:16.354Z,39.78
2023-08-05T12:37:45.001Z,38.96
2023-08-05T12:40:14.179Z,39.64
2023-08-05T12:42:43.180Z,40.09
2023-08-05T12:45:12.005Z,39.09
2023-08-05T12:47:41.274Z,39.29
2023-08-05T12:50:11.993Z,39.03
2023-08-05T12:52:40.352Z,38.92
2023-08-05T12:55:10.030Z,38.66
2023-08-05T12:57:38.537Z,39.39
2023-08-05T13:00:07.973Z,38.73
2023-08-05T13:02:36.438Z,38.54
2023-08-05T13:05:05.222Z,38.73
2023-08-05T13:07:34.969Z,39.16
2023-08-05T13:10:03.364Z,38.89
2023-08-05T13:12:31.721Z,38.71
2023-08-05T13:15:00.013Z,38.39
2023-08-05T13:17:28.366Z,38.31
2023-08-05T13:19:56.709Z,38.86
2023-08-05T13:22:25.012Z,39.33
2023-08-05T13:24:55.778Z,39.07
2023-08-05T13:27:24.300Z,38.43
2023-08-05T13:29:52.630Z,38.31
2023-08-05T13:32:20.951Z,38.06
2023-08-05T13:34:49.303Z,38.24
2023-08-05T13:37:17.604Z,38.04
2023-08-05T13:39:51.062Z,37.87
2023-08-05T13:42:20.887Z,37.83
2023-08-05T13:44:49.232Z,38.08
2023-08-05T13:47:17.557Z,38.19
2023-08-05T13:49:45.809Z,39.00
2023-08-05T13:52:14.093Z,38.43
2023-08-05T13:54:42.408Z,39.14
2023-08-05T13:57:10.712Z,38.62
2023-08-05T13:59:40.369Z,38.13
2023-08-05T14:02:08.945Z,37.79
2023-08-05T14:04:37.229Z,38.00
2023-08-05T14:07:06.026Z,38.06
2023-08-05T14:09:34.805Z,37.74
2023-08-05T14:12:03.102Z,37.71
2023-08-05T14:14:31.438Z,38.14
2023-08-05T14:17:01.172Z,38.11
2023-08-05T14:19:29.452Z,38.08
2023-08-05T14:21:57.745Z,38.60
2023-08-05T14:24:25.966Z,38.12
2023-08-05T14:26:54.250Z,37.58
2023-08-05T14:29:22.611Z,37.45
2023-08-05T14:31:51.144Z,37.68
2023-08-05T14:34:21.135Z,37.50
2023-08-05T14:36:49.456Z,37.16
2023-08-05T14:39:17.906Z,37.10
2023-08-05T14:41:46.285Z,37.43
2023-08-05T14:44:14.794Z,36.90
2023-08-05T14:46:42.992Z,36.66
2023-08-05T14:49:11.384Z,36.78
2023-08-05T14:51:41.603Z,36.58
2023-08-05T14:54:10.357Z,36.81
2023-08-05T14:56:40.053Z,37.16
2023-08-05T14:59:10.206Z,36.96
2023-08-05T15:01:38.617Z,36.71
2023-08-05T15:04:07.056Z,36.25
2023-08-05T15:06:35.311Z,36.19
2023-08-05T15:09:05.445Z,36.03
2023-08-05T15:11:33.946Z,35.77
2023-08-05T15:14:02.249Z,35.89
2023-08-05T15:16:30.716Z,36.16
2023-08-05T15:18:59.047Z,35.69
2023-08-05T15:21:27.409Z,35.05
2023-08-05T15:23:58.167Z,34.72
2023-08-05T15:26:28.589Z,34.88
2023-08-05T15:28:56.911Z,35.37
2023-08-05T15:31:25.397Z,34.90
2023-08-05T15:33:53.708Z,34.83
2023-08-05T15:36:22.032Z,34.47
2023-08-05T15:38:50.628Z,34.75
2023-08-05T15:41:20.608Z,34.69
2023-08-05T15:43:50.441Z,34.16
2023-08-05T15:46:18.818Z,34.27
2023-08-05T15:48:47.186Z,33.57
2023-08-05T15:51:15.576Z,33.78
2023-08-05T15:53:43.808Z,33.76
2023-08-05T15:56:12.081Z,33.69
2023-08-05T15:58:40.479Z,33.31
2023-08-05T16:01:10.212Z,33.34
2023-08-05T16:03:38.728Z,32.98
2023-08-05T16:06:08.353Z,32.83
2023-08-05T16:08:37.436Z,33.01
2023-08-05T16:11:07.173Z,33.06
2023-08-05T16:13:35.804Z,33.11
2023-08-05T16:16:12.845Z,32.81
2023-08-05T16:18:42.261Z,32.92
2023-08-05T16:21:12.723Z,32.63
2023-08-05T16:23:41.416Z,32.88
2023-08-05T16:26:11.414Z,32.77
2023-08-05T16:28:39.828Z,32.25
2023-08-05T16:31:08.674Z,32.41
2023-08-05T16:33:39.676Z,32.33
2023-08-05T16:36:09.294Z,32.00
2023-08-05T16:38:38.157Z,32.27
2023-08-05T16:41:07.742Z,32.22
2023-08-05T16:43:36.218Z,32.02
2023-08-05T16:46:04.546Z,31.72
2023-08-05T16:48:32.941Z,31.65
2023-08-05T16:51:03.979Z,31.59
2023-08-05T16:53:34.283Z,31.42
2023-08-05T16:56:03.850Z,31.38
2023-08-05T16:58:32.424Z,31.02
2023-08-05T17:01:00.907Z,31.31
2023-08-05T17:03:29.174Z,31.49
2023-08-05T17:05:57.508Z,31.28
2023-08-05T17:08:27.170Z,31.43
2023-08-05T17:10:55.451Z,31.13
2023-08-05T17:13:23.780Z,30.74
2023-08-05T17:15:52.545Z,31.04
2023-08-05T17:18:20.859Z,30.72
2023-08-05T17:20:54.307Z,30.60
2023-08-05T17:23:22.737Z,30.61
2023-08-05T17:25:52.951Z,30.49
2023-08-05T17:28:21.328Z,30.63
2023-08-05T17:30:50.762Z,30.41
2023-08-05T17:33:19.181Z,30.20
2023-08-05T17:35:52.652Z,30.17
2023-08-05T17:38:21.015Z,30.28
2023-08-05T17:40:50.778Z,30.20
2023-08-05T17:43:20.715Z,29.91
2023-08-05T17:45:58.182Z,30.05
2023-08-05T17:48:26.636Z,30.01
2023-08-05T17:51:00.995Z,29.91
2023-08-05T17:53:29.394Z,29.60
2023-08-05T17:55:57.745Z,29.89
2023-08-05T17:58:27.805Z,29.50
2023-08-05T18:00:56.228Z,29.57
2023-08-05T18:03:24.873Z,29.36
2023-08-05T18:06:01.555Z,29.43
2023-08-05T18:08:36.343Z,29.57
2023-08-05T18:11:05.072Z,28.95
2023-08-05T18:13:35.097Z,28.90
2023-08-05T18:16:03.729Z,29.09
2023-08-05T18:18:32.108Z,29.30
2023-08-05T18:21:00.365Z,29.23
2023-08-05T18:23:28.684Z,29.30
2023-08-05T18:25:57.335Z,29.08
2023-08-05T18:28:25.779Z,29.23
2023-08-05T18:30:55.765Z,29.36
2023-08-05T18:33:23.973Z,29.27
2023-08-05T18:35:52.337Z,29.11
2023-08-05T18:38:20.705Z,28.94
2023-08-05T18:40:48.960Z,28.96
2023-08-05T18:43:18.370Z,28.89
2023-08-05T18:45:46.675Z,28.75
2023-08-05T18:48:16.356Z,28.73
2023-08-05T18:50:46.454Z,28.90
2023-08-05T18:53:14.739Z,28.92
2023-08-05T18:55:43.049Z,28.96
2023-08-05T18:58:11.622Z,28.77
2023-08-05T19:00:41.627Z,28.56
2023-08-05T19:03:09.965Z,28.49
2023-08-05T19:05:39.880Z,28.48
2023-08-05T19:08:08.249Z,28.34
2023-08-05T19:10:45.512Z,28.62
2023-08-05T19:13:13.716Z,28.41
2023-08-05T19:15:42.198Z,28.40
2023-08-05T19:18:13.263Z,28.62
2023-08-05T19:20:42.966Z,28.48
2023-08-05T19:23:11.453Z,28.25
2023-08-05T19:25:39.801Z,28.24
2023-08-05T19:28:08.124Z,28.06
2023-08-05T19:30:38.874Z,28.05
2023-08-05T19:33:07.316Z,28.28
2023-08-05T19:35:35.633Z,28.45
2023-08-05T19:38:05.279Z,28.13
2023-08-05T19:40:33.695Z,28.40
2023-08-05T19:43:02.968Z,28.31
2023-08-05T19:45:31.342Z,28.34
2023-08-05T19:47:59.627Z,28.58
2023-08-05T19:50:27.957Z,28.48
2023-08-05T19:52:56.232Z,28.52
2023-08-05T19:55:30.319Z,28.61
2023-08-05T19:57:58.635Z,28.74
2023-08-05T20:00:27.895Z,28.85
2023-08-05T20:02:57.459Z,28.39
2023-08-05T20:05:25.971Z,28.57
2023-08-05T20:07:54.773Z,28.62
2023-08-05T20:10:23.030Z,28.70
2023-08-05T20:12:52.796Z,28.68
2023-08-05T20:15:21.114Z,28.59
2023-08-05T20:17:49.504Z,28.52
2023-08-05T20:20:17.933Z,28.39
2023-08-05T20:22:46.568Z,28.39
2023-08-05T20:25:14.874Z,28.47
2023-08-05T20:27:43.205Z,28.55
2023-08-05T20:30:14.171Z,28.64
2023-08-05T20:32:43.350Z,28.49
2023-08-05T20:35:11.937Z,28.23
2023-08-05T20:37:40.422Z,28.21
2023-08-05T20:40:09.984Z,28.41
2023-08-05T20:42:38.237Z,28.39
2023-08-05T20:45:08.766Z,28.31
2023-08-05T20:47:38.514Z,28.23
2023-08-05T20:50:08.072Z,28.21
2023-08-05T20:52:36.409Z,28.17
2023-08-05T20:55:04.816Z,28.15
2023-08-05T20:57:33.296Z,28.15
2023-08-05T21:00:01.690Z,28.14
2023-08-05T21:02:30.112Z,28.12
2023-08-05T21:05:01.170Z,27.97
2023-08-05T21:07:32.302Z,27.59
2023-08-05T21:10:00.705Z,27.81
2023-08-05T21:12:28.917Z,27.61
2023-08-05T21:14:57.274Z,27.65
2023-08-05T21:17:25.575Z,27.37
2023-08-05T21:19:54.025Z,27.54
2023-08-05T21:22:23.857Z,27.58
2023-08-05T21:24:52.229Z,27.72
2023-08-05T21:27:20.601Z,27.31
2023-08-05T21:29:49.092Z,27.23
2023-08-05T21:32:17.463Z,27.01
2023-08-05T21:34:46.377Z,27.13
2023-08-05T21:37:14.754Z,27.11
2023-08-05T21:39:47.162Z,26.68
2023-08-05T21:42:15.612Z,26.53
2023-08-05T21:44:43.889Z,26.78
2023-08-05T21:47:12.250Z,26.95
2023-08-05T21:49:40.845Z,26.82
2023-08-05T21:52:09.458Z,26.48
2023-08-05T21:54:37.782Z,26.59
2023-08-05T21:57:08.830Z,26.82
2023-08-05T21:59:37.502Z,26.69
2023-08-05T22:02:06.771Z,26.76
2023-08-05T22:04:35.404Z,26.98
2023-08-05T22:07:04.061Z,27.04
2023-08-05T22:09:32.334Z,27.23
2023-08-05T22:12:05.129Z,26.85
2023-08-05T22:14:36.529Z,26.91
2023-08-05T22:17:04.942Z,27.07
2023-08-05T22:19:33.320Z,27.24
2023-08-05T22:22:01.648Z,27.36
2023-08-05T22:27:03.415Z,26.94
2023-08-05T22:29:31.697Z,26.79
2023-08-05T22:32:01.329Z,26.73
2023-08-05T22:34:29.732Z,26.67
2023-08-05T22:36:58.060Z,26.56
2023-08-05T22:39:26.402Z,26.84
2023-08-05T22:41:55.035Z,27.09
2023-08-05T22:44:23.525Z,26.96
2023-08-05T22:46:52.324Z,27.13
2023-08-05T22:49:22.479Z,26.81
2023-08-05T22:51:51.084Z,26.64
2023-08-05T22:54:19.551Z,26.80
2023-08-05T22:56:47.877Z,26.90
2023-08-05T22:59:16.290Z,26.63
2023-08-05T23:01:44.660Z,26.85
2023-08-05T23:04:13.026Z,26.84
2023-08-05T23:06:42.770Z,27.06
2023-08-05T23:09:11.120Z,27.10
2023-08-05T23:11:39.437Z,26.85
2023-08-05T23:14:08.698Z,26.39
2023-08-05T23:16:37.134Z,26.17
2023-08-05T23:19:07.137Z,25.86
2023-08-05T23:21:35.454Z,25.81
2023-08-05T23:24:05.195Z,25.57
2023-08-05T23:26:33.667Z,25.63
2023-08-05T23:29:02.058Z,25.88
2023-08-05T23:31:30.372Z,25.92
2023-08-05T23:33:59.690Z,26.06
2023-08-05T23:36:28.434Z,26.28
2023-08-05T23:38:56.822Z,26.04
2023-08-05T23:41:26.555Z,25.62
2023-08-05T23:43:54.917Z,26.02
2023-08-05T23:46:23.244Z,26.16
2023-08-05T23:48:51.730Z,26.34
2023-08-05T23:51:21.004Z,26.29
2023-08-05T23:53:49.495Z,26.20
2023-08-05T23:56:17.745Z,26.20
2023-08-05T23:58:47.515Z,25.98
